< Cyclone 202234 2022 Season Cyclone 202237 >
Cyclone 202236 (Karim)
General InformationTrack Information on Google MapsDetailed Wind InformationList of All Images || ResourceGoogle EarthGE AnimationAtom FeedGeoJSON
Detalied Best Track (Time Zone = UTC)
Year Month Day Hour Lat. Long. Pressure (hPa) Wind (kt) Class Image Chart
2022 5 6 12 -6.9 88.4 998 20 2 Image --
2022 5 6 18 -7.0 88.5 998 30 2 Image --
2022 5 7 00 -7.1 88.7 997 35 3 Image --
2022 5 7 06 -7.5 89.4 995 40 3 Image --
2022 5 7 12 -8.6 90.1 994 40 3 Image --
2022 5 7 18 -9.3 90.1 992 40 3 Image --
2022 5 8 00 -10.0 90.1 988 45 3 Image --
2022 5 8 06 -10.2 90.1 983 50 4 Image --
2022 5 8 12 -10.4 90.4 984 50 4 Image --
2022 5 8 18 -10.9 90.5 982 50 4 Image --
2022 5 9 00 -11.8 90.7 986 55 4 Image --
2022 5 9 06 -12.4 90.7 985 55 4 Image --
2022 5 9 12 -13.1 90.9 982 55 4 Image --
2022 5 9 18 -14.0 91.0 982 55 4 Image --
2022 5 10 00 -15.0 91.4 984 60 4 Image --
2022 5 10 06 -16.4 91.9 985 60 4 Image --
2022 5 10 12 -17.6 92.7 987 55 4 Image --
2022 5 10 18 -18.6 93.4 989 55 4 Image --
2022 5 11 00 -19.3 93.7 992 55 4 Image --
2022 5 11 06 -19.1 95.6 992 55 4 Image --
< Cyclone 202234 2022 Season Cyclone 202237 >

Help